createdAt,value
2018-05-15T00:01:14.801Z,1.25
2018-05-15T00:07:09.752Z,0.84
2018-05-15T00:13:04.762Z,1.05
2018-05-15T00:18:59.751Z,0.95
2018-05-15T00:24:54.789Z,0.81
2018-05-15T00:30:49.769Z,0.79
2018-05-15T00:36:44.787Z,0.85
2018-05-15T00:42:39.798Z,1.03
2018-05-15T00:48:34.742Z,0.84
2018-05-15T00:54:29.815Z,0.88
2018-05-15T01:00:24.832Z,0.87
2018-05-15T01:06:19.798Z,0.87
2018-05-15T01:12:14.848Z,1.01
2018-05-15T01:18:09.758Z,1.72
2018-05-15T01:24:04.789Z,1.99
2018-05-15T01:29:59.806Z,1.8
2018-05-15T01:35:54.802Z,1.88
2018-05-15T01:41:49.770Z,2.27
2018-05-15T01:47:44.813Z,1.97
2018-05-15T01:53:39.822Z,2.35
2018-05-15T01:59:34.826Z,2.41
2018-05-15T02:05:29.808Z,2.77
2018-05-15T02:11:24.800Z,1.9
2018-05-15T02:17:19.827Z,1.2
2018-05-15T02:23:14.801Z,1.47
2018-05-15T02:29:09.841Z,1.55
2018-05-15T02:35:04.887Z,1.26
2018-05-15T02:40:59.844Z,1.57
2018-05-15T02:46:54.807Z,1.37
2018-05-15T02:52:49.873Z,1.42
2018-05-15T02:58:44.828Z,2.93
2018-05-15T03:04:39.834Z,2.17
2018-05-15T03:10:34.868Z,2.1
2018-05-15T03:16:29.848Z,2.33
2018-05-15T03:22:24.857Z,2.73
2018-05-15T03:28:19.853Z,2.18
2018-05-15T03:34:14.852Z,2.51
2018-05-15T03:40:09.834Z,2.42
2018-05-15T03:46:04.853Z,1.91
2018-05-15T03:51:59.881Z,1.55
2018-05-15T03:57:54.894Z,1.33
2018-05-15T04:03:49.937Z,2.13
2018-05-15T04:09:44.891Z,2.22
2018-05-15T04:15:39.897Z,1.89
2018-05-15T04:21:34.861Z,1.73
2018-05-15T04:27:29.902Z,1.86
2018-05-15T04:33:24.917Z,1.52
2018-05-15T04:39:19.888Z,1.41
2018-05-15T04:45:14.920Z,1.92
2018-05-15T04:51:09.892Z,2.63
2018-05-15T04:57:04.910Z,3.05
2018-05-15T05:02:59.893Z,3.07
2018-05-15T05:08:54.925Z,3.92
2018-05-15T05:14:49.903Z,3.77
2018-05-15T05:20:44.945Z,4.02
2018-05-15T05:26:39.919Z,4.11
2018-05-15T05:32:34.963Z,3.87
2018-05-15T05:38:29.888Z,4.43
2018-05-15T05:44:24.941Z,4.64
2018-05-15T05:50:19.953Z,3.97
2018-05-15T05:56:14.949Z,4.31
2018-05-15T06:02:09.948Z,4.03
2018-05-15T06:08:04.944Z,3.75
2018-05-15T06:13:59.957Z,3.51
2018-05-15T06:19:54.957Z,4.85
2018-05-15T06:25:49.934Z,4.79
2018-05-15T06:31:44.973Z,4.48
2018-05-15T06:37:39.955Z,3.26
2018-05-15T06:43:34.985Z,2.8
2018-05-15T06:49:29.969Z,2.6
2018-05-15T06:55:24.986Z,2.43
2018-05-15T07:01:19.970Z,10.63
2018-05-15T07:07:14.958Z,7.89
2018-05-15T07:13:09.976Z,5.47
2018-05-15T07:19:05.011Z,7.58
2018-05-15T07:25:00.038Z,1.73
2018-05-15T07:30:54.998Z,5.62
2018-05-15T07:36:49.997Z,4.36
2018-05-15T07:42:45.013Z,2.43
2018-05-15T07:48:39.987Z,2.56
2018-05-15T07:54:34.998Z,2.12
2018-05-15T08:00:30.061Z,2.27
2018-05-15T08:06:24.981Z,1.21
2018-05-15T08:12:20.008Z,2.09
2018-05-15T08:18:15.055Z,2.04
2018-05-15T08:24:09.989Z,2.58
2018-05-15T08:30:05.075Z,1.72
2018-05-15T08:35:59.993Z,1.74
2018-05-15T08:41:54.995Z,2.17
2018-05-15T08:47:50.031Z,2.05
2018-05-15T08:53:45.044Z,1.59
2018-05-15T08:59:40.031Z,1.52
2018-05-15T09:05:35.002Z,1.12
2018-05-15T09:11:30.056Z,1.72
2018-05-15T09:17:25.017Z,0.93
2018-05-15T09:23:20.031Z,1.1
2018-05-15T09:29:15.066Z,0.82
2018-05-15T09:35:10.021Z,0.74
2018-05-15T09:41:05.054Z,1.93
2018-05-15T09:47:00.144Z,1.17
2018-05-15T09:52:55.085Z,1.21
2018-05-15T09:58:50.065Z,1.29
2018-05-15T10:04:45.073Z,1.4
2018-05-15T10:10:40.107Z,0.96
2018-05-15T10:16:35.048Z,1.29
2018-05-15T10:22:30.039Z,1.25
2018-05-15T10:28:25.083Z,1.47
2018-05-15T10:34:20.099Z,1.1
2018-05-15T10:40:15.074Z,1.16
2018-05-15T10:46:10.128Z,0.89
2018-05-15T10:52:05.074Z,0.9
2018-05-15T10:58:00.161Z,1.37
2018-05-15T11:03:55.101Z,1.46
2018-05-15T11:09:50.088Z,0.9
2018-05-15T11:15:45.109Z,0.94
2018-05-15T11:21:40.096Z,0.84
2018-05-15T11:27:35.161Z,0.86
2018-05-15T11:33:30.119Z,0.84
2018-05-15T11:39:25.082Z,0.88
2018-05-15T11:45:20.118Z,0.93
2018-05-15T11:51:16.042Z,0.63
2018-05-15T11:57:10.163Z,0.79
2018-05-15T12:03:05.163Z,1.99
2018-05-15T12:09:00.167Z,2.19
2018-05-15T12:14:55.108Z,1.96
2018-05-15T12:20:50.228Z,1.61
2018-05-15T12:26:45.113Z,1.08
2018-05-15T12:32:40.138Z,1.16
2018-05-15T12:38:35.172Z,0.98
2018-05-15T12:44:30.143Z,0.96
2018-05-15T12:50:25.190Z,1.24
2018-05-15T12:56:20.159Z,0.96
2018-05-15T13:02:15.136Z,0.77
2018-05-15T13:08:10.176Z,0.81
2018-05-15T13:14:05.164Z,0.66
2018-05-15T13:20:00.312Z,0.77
2018-05-15T13:25:55.182Z,0.61
2018-05-15T13:31:50.136Z,0.95
2018-05-15T13:37:45.193Z,0.67
2018-05-15T13:43:40.172Z,0.82
2018-05-15T13:49:35.175Z,1.44
2018-05-15T13:55:30.225Z,0.87
2018-05-15T14:01:25.160Z,0.91
2018-05-15T14:07:20.287Z,0.84
2018-05-15T14:13:15.204Z,0.79
2018-05-15T14:19:10.199Z,0.82
2018-05-15T14:25:05.179Z,0.58
2018-05-15T14:31:00.185Z,0.91
2018-05-15T14:36:55.196Z,1.05
2018-05-15T14:42:50.259Z,1.15
2018-05-15T14:48:45.212Z,0.97
2018-05-15T14:54:40.221Z,0.68
2018-05-15T15:00:35.196Z,0.92
2018-05-15T15:06:30.241Z,0.76
2018-05-15T15:12:25.275Z,1.01
2018-05-15T15:18:20.222Z,0.55
2018-05-15T15:24:15.220Z,1.03
2018-05-15T15:30:10.236Z,0.92
2018-05-15T15:36:05.231Z,1.27
2018-05-15T15:42:00.243Z,0.76
2018-05-15T15:47:55.246Z,0.91
2018-05-15T15:53:50.236Z,0.79
2018-05-15T15:59:45.279Z,0.85
2018-05-15T16:05:40.277Z,1.11
2018-05-15T16:11:35.242Z,0.98
2018-05-15T16:17:30.221Z,1.53
2018-05-15T16:23:25.313Z,1.48
2018-05-15T16:29:20.289Z,0.71
2018-05-15T16:35:15.255Z,0.95
2018-05-15T16:41:10.262Z,1.22
2018-05-15T16:47:05.310Z,1.16
2018-05-15T16:53:00.497Z,1.58
2018-05-15T16:58:55.243Z,1
2018-05-15T17:04:50.300Z,0.91
2018-05-15T17:10:45.265Z,1.06
2018-05-15T17:16:40.297Z,1.99
2018-05-15T17:22:35.270Z,2.69
2018-05-15T17:28:30.293Z,3
2018-05-15T17:34:25.386Z,1.78
2018-05-15T17:40:20.304Z,1.55
2018-05-15T17:46:15.283Z,1.73
2018-05-15T17:52:10.310Z,1.02
2018-05-15T17:58:05.295Z,1.83
2018-05-15T18:04:00.289Z,1.16
2018-05-15T18:09:55.297Z,1.08
2018-05-15T18:15:50.305Z,2.12
2018-05-15T18:21:45.327Z,1.38
2018-05-15T18:27:40.436Z,7.39
2018-05-15T18:33:35.325Z,2.27
2018-05-15T18:39:30.325Z,2.97
2018-05-15T18:45:25.363Z,2.53
2018-05-15T18:51:20.388Z,1.19
2018-05-15T18:57:15.342Z,1.13
2018-05-15T19:03:10.322Z,1.37
2018-05-15T19:09:05.383Z,1.96
2018-05-15T19:15:00.364Z,2.85
2018-05-15T19:20:55.375Z,2.25
2018-05-15T19:26:50.425Z,1.7
2018-05-15T19:32:45.376Z,1.36
2018-05-15T19:38:40.348Z,1.15
2018-05-15T19:44:35.370Z,1.59
2018-05-15T19:50:30.339Z,1.54
2018-05-15T19:56:25.371Z,1.7
2018-05-15T20:02:20.384Z,2.33
2018-05-15T20:08:15.387Z,1.52
2018-05-15T20:14:10.371Z,1.69
2018-05-15T20:20:05.450Z,1.37
2018-05-15T20:26:00.390Z,1.81
2018-05-15T20:31:55.372Z,1.39
2018-05-15T20:37:50.367Z,1.63
2018-05-15T20:43:45.403Z,1.59
2018-05-15T20:49:40.383Z,1.4
2018-05-15T20:55:35.406Z,1.42
2018-05-15T21:01:30.444Z,2.1
2018-05-15T21:07:25.380Z,1.96
2018-05-15T21:13:20.424Z,1.3
2018-05-15T21:19:15.402Z,1.2
2018-05-15T21:25:10.418Z,1.4
2018-05-15T21:31:05.416Z,1.42
2018-05-15T21:37:00.423Z,1.31
2018-05-15T21:42:55.387Z,1.27
2018-05-15T21:48:50.449Z,1.1
2018-05-15T21:54:45.450Z,1.3
2018-05-15T22:00:40.505Z,1.13
2018-05-15T22:06:35.422Z,1.42
2018-05-15T22:12:30.409Z,1.51
2018-05-15T22:18:25.482Z,1.23
2018-05-15T22:24:20.447Z,1.56
2018-05-15T22:30:15.482Z,1.71
2018-05-15T22:36:10.443Z,1.34
2018-05-15T22:42:05.473Z,1.59
2018-05-15T22:48:00.456Z,1.88
2018-05-15T22:53:55.474Z,2.09
2018-05-15T22:59:50.473Z,1.79
2018-05-15T23:05:45.457Z,1.83
2018-05-15T23:11:40.474Z,1.77
2018-05-15T23:17:35.495Z,1.82
2018-05-15T23:23:30.473Z,1.77
2018-05-15T23:29:25.552Z,1.53
2018-05-15T23:35:20.477Z,1.63
2018-05-15T23:41:15.464Z,1.75
2018-05-15T23:47:10.468Z,1.53
2018-05-15T23:53:05.521Z,1.65
2018-05-15T23:59:00.521Z,1.62
